createdAt,value
2019-03-20T00:03:21.329Z,101165.91
2019-03-20T00:07:23.795Z,101177.31
2019-03-20T00:11:26.393Z,101181.59
2019-03-20T00:15:28.923Z,101184.62
2019-03-20T00:19:32.707Z,101181.59
2019-03-20T00:23:35.437Z,101185.52
2019-03-20T00:27:38.410Z,101197.06
2019-03-20T00:31:41.226Z,101187.13
2019-03-20T00:35:43.941Z,101190.64
2019-03-20T00:39:46.412Z,101187.57
2019-03-20T00:43:50.590Z,101187.57
2019-03-20T00:47:53.025Z,101196.31
2019-03-20T00:51:55.678Z,101187.64
2019-03-20T00:55:58.082Z,101193.27
2019-03-20T01:00:01.058Z,101199.56
2019-03-20T01:04:03.585Z,101194.31
2019-03-20T01:08:06.220Z,101197.94
2019-03-20T01:12:08.747Z,101191.92
2019-03-20T01:16:11.392Z,101198.08
2019-03-20T01:20:15.510Z,101208.58
2019-03-20T01:24:18.018Z,101217.72
2019-03-20T01:28:20.487Z,101220.76
2019-03-20T01:32:23.201Z,101223.77
2019-03-20T01:36:25.932Z,101226.39
2019-03-20T01:40:28.567Z,101232.05
2019-03-20T01:44:32.224Z,101228.02
2019-03-20T01:48:34.690Z,101227.95
2019-03-20T01:52:37.193Z,101223.87
2019-03-20T01:56:40.156Z,101218.66
2019-03-20T02:00:43.045Z,101216.45
2019-03-20T02:04:45.565Z,101205.42
2019-03-20T02:08:49.174Z,101211.16
2019-03-20T02:12:51.766Z,101216.34
2019-03-20T02:16:54.570Z,101218.52
2019-03-20T02:20:57.315Z,101215.44
2019-03-20T02:24:59.757Z,101211.16
2019-03-20T02:29:02.317Z,101218.97
2019-03-20T02:33:04.844Z,101215.13
2019-03-20T02:37:07.500Z,101207.36
2019-03-20T02:41:09.935Z,101214.72
2019-03-20T02:45:13.665Z,101212.09
2019-03-20T02:49:16.102Z,101202.08
2019-03-20T02:53:18.736Z,101206.80
2019-03-20T02:57:22.307Z,101212.16
2019-03-20T03:01:24.841Z,101210.89
2019-03-20T03:05:27.258Z,101221.14
2019-03-20T03:09:29.827Z,101211.20
2019-03-20T03:13:32.348Z,101209.64
2019-03-20T03:17:35.005Z,101212.09
2019-03-20T03:21:37.738Z,101209.47
2019-03-20T03:25:40.404Z,101207.33
2019-03-20T03:29:42.810Z,101207.77
2019-03-20T03:33:45.580Z,101209.15
2019-03-20T03:37:49.211Z,101221.82
2019-03-20T03:41:51.767Z,101215.56
2019-03-20T03:45:54.591Z,101215.08
2019-03-20T03:49:57.556Z,101215.91
2019-03-20T03:54:00.194Z,101218.88
2019-03-20T03:58:03.156Z,101218.53
2019-03-20T04:02:05.543Z,101221.64
2019-03-20T04:06:08.111Z,101223.73
2019-03-20T04:10:11.882Z,101222.52
2019-03-20T04:14:16.113Z,101227.44
2019-03-20T04:18:18.683Z,101232.08
2019-03-20T04:22:21.334Z,101232.27
2019-03-20T04:26:24.880Z,101236.20
2019-03-20T04:30:27.559Z,101239.27
2019-03-20T04:34:30.159Z,101246.18
2019-03-20T04:38:32.842Z,101236.30
2019-03-20T04:42:36.515Z,101239.75
2019-03-20T04:46:39.338Z,101251.35
2019-03-20T04:50:44.287Z,101256.27
2019-03-20T04:54:47.254Z,101253.77
2019-03-20T04:58:51.321Z,101247.40
2019-03-20T05:02:54.870Z,101251.48
2019-03-20T05:06:59.101Z,101247.37
2019-03-20T05:11:02.973Z,101255.59
2019-03-20T05:15:06.193Z,101252.94
2019-03-20T05:19:08.947Z,101257.89
2019-03-20T05:23:11.429Z,101262.41
2019-03-20T05:27:14.067Z,101267.75
2019-03-20T05:31:16.635Z,101263.37
2019-03-20T05:35:19.304Z,101262.92
2019-03-20T05:39:21.736Z,101265.56
2019-03-20T05:43:25.631Z,101263.13
2019-03-20T05:47:28.224Z,101271.23
2019-03-20T05:51:31.013Z,101260.71
2019-03-20T05:55:33.525Z,101259.43
2019-03-20T05:59:36.156Z,101253.28
2019-03-20T06:03:38.737Z,101252.83
2019-03-20T06:07:41.449Z,101237.96
2019-03-20T06:11:43.897Z,101237.66
2019-03-20T06:15:46.706Z,101230.70
2019-03-20T06:19:49.904Z,101219.23
2019-03-20T06:23:53.670Z,101220.28
2019-03-20T06:27:56.390Z,101222.14
2019-03-20T06:31:59.029Z,101204.11
2019-03-20T06:36:01.659Z,101204.28
2019-03-20T06:40:04.618Z,101203.02
2019-03-20T06:44:07.327Z,101199.08
2019-03-20T06:48:09.796Z,101196.31
2019-03-20T06:52:12.217Z,101188.80
2019-03-20T06:56:15.462Z,101193.41
2019-03-20T07:00:53.947Z,101191.88
2019-03-20T07:05:48.911Z,101188.98
2019-03-20T07:10:17.217Z,101169.69
2019-03-20T07:14:20.915Z,101181.66
2019-03-20T07:18:23.334Z,101184.47
2019-03-20T07:22:25.849Z,101177.42
2019-03-20T07:26:28.784Z,101179.33
2019-03-20T07:30:32.496Z,101172.09
2019-03-20T07:34:34.878Z,101175.52
2019-03-20T07:38:37.362Z,101160.39
2019-03-20T07:42:39.804Z,101155.91
2019-03-20T07:46:42.360Z,101150.39
2019-03-20T07:50:44.927Z,101152.13
2019-03-20T07:54:47.479Z,101141.92
2019-03-20T07:58:49.831Z,101141.42
2019-03-20T08:02:52.297Z,101124.86
2019-03-20T08:06:54.669Z,101123.27
2019-03-20T08:10:57.228Z,101124.71
2019-03-20T08:14:59.794Z,101128.91
2019-03-20T08:19:02.277Z,101123.59
2019-03-20T08:23:04.757Z,101107.61
2019-03-20T08:27:07.435Z,101095.73
2019-03-20T08:31:10.059Z,101108.47
2019-03-20T08:35:12.985Z,101100.02
2019-03-20T08:39:15.424Z,101102.34
2019-03-20T08:43:18.176Z,101093.12
2019-03-20T08:47:20.607Z,101089.78
2019-03-20T08:51:23.156Z,101075.27
2019-03-20T08:55:26.070Z,101072.19
2019-03-20T08:59:28.633Z,101061.78
2019-03-20T09:03:31.153Z,101052.20
2019-03-20T09:07:33.829Z,101047.33
2019-03-20T09:11:36.317Z,101049.96
2019-03-20T09:15:38.906Z,101042.76
2019-03-20T09:19:41.425Z,101022.52
2019-03-20T09:23:44.090Z,101023.28
2019-03-20T09:27:46.583Z,101015.70
2019-03-20T09:31:49.128Z,101016.55
2019-03-20T09:35:51.775Z,101011.88
2019-03-20T09:39:54.421Z,100999.47
2019-03-20T09:43:56.844Z,100996.22
2019-03-20T09:47:59.494Z,100994.66
2019-03-20T09:52:02.025Z,100991.55
2019-03-20T09:56:04.884Z,100985.63
2019-03-20T10:00:11.744Z,100981.52
2019-03-20T10:04:14.254Z,100974.53
2019-03-20T10:08:16.777Z,100960.54
2019-03-20T10:12:19.709Z,100960.22
2019-03-20T10:16:22.074Z,100956.42
2019-03-20T10:20:24.924Z,100953.42
2019-03-20T10:24:27.356Z,100953.55
2019-03-20T10:28:30.173Z,100935.73
2019-03-20T10:32:32.984Z,100924.94
2019-03-20T10:36:35.703Z,100915.33
2019-03-20T10:40:38.295Z,100909.52
2019-03-20T10:44:40.970Z,100891.30
2019-03-20T10:48:43.535Z,100881.19
2019-03-20T10:52:46.142Z,100875.26
2019-03-20T10:56:48.918Z,100872.42
2019-03-20T11:00:51.431Z,100863.67
2019-03-20T11:04:53.949Z,100858.10
2019-03-20T11:08:56.272Z,100845.26
2019-03-20T11:12:58.934Z,100850.40
2019-03-20T11:17:01.753Z,100836.78
2019-03-20T11:21:03.923Z,100836.65
2019-03-20T11:25:07.172Z,100832.13
2019-03-20T11:29:09.881Z,100821.81
2019-03-20T11:33:12.427Z,100801.12
2019-03-20T11:37:14.973Z,100804.06
2019-03-20T11:41:17.628Z,100797.17
2019-03-20T11:45:20.129Z,100789.22
2019-03-20T11:49:22.703Z,100785.39
2019-03-20T11:53:25.132Z,100777.84
2019-03-20T11:57:27.774Z,100775.20
2019-03-20T12:01:30.444Z,100772.11
2019-03-20T12:05:32.698Z,100776.39
2019-03-20T12:09:40.998Z,100774.45
2019-03-20T12:13:40.679Z,100772.42
2019-03-20T12:17:43.205Z,100760.81
2019-03-20T12:21:45.739Z,100756.94
2019-03-20T12:25:48.692Z,100752.06
2019-03-20T12:29:51.221Z,100748.81
2019-03-20T12:33:53.858Z,100730.83
2019-03-20T12:37:57.334Z,100734.09
2019-03-20T12:41:59.859Z,100726.82
2019-03-20T12:46:02.346Z,100714.42
2019-03-20T12:50:05.037Z,100705.38
2019-03-20T12:54:07.482Z,100700.48
2019-03-20T12:58:10.065Z,100692.44
2019-03-20T13:02:12.578Z,100684.61
2019-03-20T13:06:15.176Z,100681.98
2019-03-20T13:10:19.295Z,100679.27
2019-03-20T13:14:21.504Z,100673.94
2019-03-20T13:18:24.116Z,100670.90
2019-03-20T13:22:26.594Z,100666.59
2019-03-20T13:26:29.338Z,100655.91
2019-03-20T13:30:34.624Z,100650.15
2019-03-20T13:34:37.139Z,100651.86
2019-03-20T13:38:40.871Z,100648.53
2019-03-20T13:42:44.170Z,100649.94
2019-03-20T13:46:46.365Z,100646.77
2019-03-20T13:50:51.724Z,100635.75
2019-03-20T13:54:56.252Z,100641.96
2019-03-20T13:58:59.821Z,100642.81
2019-03-20T14:03:02.107Z,100646.37
2019-03-20T14:07:04.338Z,100649.37
2019-03-20T14:11:07.954Z,100644.41
2019-03-20T14:15:11.186Z,100649.61
2019-03-20T14:19:13.421Z,100653.41
2019-03-20T14:23:16.110Z,100645.72
2019-03-20T14:27:18.700Z,100646.98
2019-03-20T14:31:20.974Z,100651.14
2019-03-20T14:35:23.360Z,100647.74
2019-03-20T14:39:26.079Z,100650.07
2019-03-20T14:43:28.708Z,100653.50
2019-03-20T14:47:41.768Z,100658.91
2019-03-20T14:51:35.693Z,100650.37
2019-03-20T14:55:39.945Z,100652.15
2019-03-20T14:59:42.438Z,100643.34
2019-03-20T15:03:45.084Z,100642.27
2019-03-20T15:07:47.505Z,100642.17
2019-03-20T15:11:50.031Z,100644.74
2019-03-20T15:16:00.448Z,100647.53
2019-03-20T15:20:02.955Z,100649.06
2019-03-20T15:24:05.510Z,100649.06
2019-03-20T15:28:08.312Z,100644.29
2019-03-20T15:32:10.807Z,100644.34
2019-03-20T15:36:13.618Z,100648.39
2019-03-20T15:40:17.035Z,100652.24
2019-03-20T15:44:19.671Z,100655.89
2019-03-20T15:48:23.736Z,100655.48
2019-03-20T15:52:26.415Z,100657.60
2019-03-20T15:56:28.884Z,100658.27
2019-03-20T16:00:31.354Z,100672.84
2019-03-20T16:04:33.846Z,100670.76
2019-03-20T16:08:36.352Z,100678.25
2019-03-20T16:12:38.941Z,100680.13
2019-03-20T16:16:41.922Z,100690.55
2019-03-20T16:20:44.470Z,100687.61
2019-03-20T16:24:47.433Z,100694.59
2019-03-20T16:28:50.952Z,100708.27
2019-03-20T16:32:53.496Z,100696.06
2019-03-20T16:36:56.063Z,100693.89
2019-03-20T16:40:58.798Z,100682.56
2019-03-20T16:45:01.461Z,100690.00
2019-03-20T16:49:04.164Z,100696.66
2019-03-20T16:53:06.865Z,100695.81
2019-03-20T16:57:09.494Z,100701.07
2019-03-20T17:01:11.987Z,100702.39
2019-03-20T17:05:15.040Z,100708.56
2019-03-20T17:09:17.656Z,100712.82
2019-03-20T17:13:20.468Z,100703.25
2019-03-20T17:17:23.138Z,100702.39
2019-03-20T17:21:25.700Z,100694.95
2019-03-20T17:25:28.532Z,100703.70
2019-03-20T17:29:31.096Z,100714.77
2019-03-20T17:33:33.602Z,100716.23
2019-03-20T17:37:36.859Z,100717.41
2019-03-20T17:41:39.297Z,100721.81
2019-03-20T17:45:41.603Z,100725.36
2019-03-20T17:49:45.567Z,100737.51
2019-03-20T17:53:47.858Z,100738.83
2019-03-20T17:57:51.765Z,100734.51
2019-03-20T18:01:54.125Z,100739.77
2019-03-20T18:05:56.305Z,100752.07
2019-03-20T18:09:58.650Z,100748.98
2019-03-20T18:14:01.853Z,100749.04
2019-03-20T18:18:04.285Z,100755.30
2019-03-20T18:22:06.518Z,100752.88
2019-03-20T18:26:10.025Z,100760.40
2019-03-20T18:30:18.991Z,100758.77
2019-03-20T18:34:21.587Z,100769.98
2019-03-20T18:38:23.805Z,100769.75
2019-03-20T18:42:26.567Z,100778.16
2019-03-20T18:46:28.820Z,100771.12
2019-03-20T18:50:31.212Z,100782.33
2019-03-20T18:54:33.439Z,100792.33
2019-03-20T18:58:36.704Z,100806.80
2019-03-20T19:02:38.924Z,100805.43
2019-03-20T19:06:41.386Z,100796.22
2019-03-20T19:10:43.747Z,100801.89
2019-03-20T19:14:46.654Z,100800.22
2019-03-20T19:18:49.089Z,100803.48
2019-03-20T19:22:51.784Z,100811.69
2019-03-20T19:26:54.430Z,100809.06
2019-03-20T19:30:56.929Z,100819.13
2019-03-20T19:34:59.391Z,100814.38
2019-03-20T19:39:01.969Z,100824.84
2019-03-20T19:43:06.834Z,100826.16
2019-03-20T19:47:10.282Z,100831.73
2019-03-20T19:51:12.961Z,100817.81
2019-03-20T19:55:15.647Z,100824.84
2019-03-20T19:59:18.454Z,100829.70
2019-03-20T20:03:21.024Z,100833.19
2019-03-20T20:07:23.417Z,100830.83
2019-03-20T20:11:25.987Z,100829.20
2019-03-20T20:15:28.700Z,100824.48
2019-03-20T20:19:31.227Z,100829.84
2019-03-20T20:23:33.780Z,100837.77
2019-03-20T20:27:36.337Z,100845.14
2019-03-20T20:31:39.052Z,100852.02
2019-03-20T20:35:42.844Z,100834.48
2019-03-20T20:39:45.337Z,100840.86
2019-03-20T20:43:48.062Z,100850.14
2019-03-20T20:47:51.345Z,100845.41
2019-03-20T20:51:54.322Z,100837.70
2019-03-20T20:55:56.729Z,100836.20
2019-03-20T20:59:59.280Z,100836.08
2019-03-20T21:04:01.808Z,100839.36
2019-03-20T21:08:04.361Z,100835.20
2019-03-20T21:12:06.905Z,100846.41
2019-03-20T21:16:10.446Z,100846.74
2019-03-20T21:20:14.019Z,100837.98
2019-03-20T21:24:27.975Z,100851.69
2019-03-20T21:28:59.621Z,100854.27
2019-03-20T21:33:03.082Z,100855.62
2019-03-20T21:37:51.715Z,100857.09
2019-03-20T21:42:42.562Z,100860.69
2019-03-20T21:47:30.437Z,100865.78
2019-03-20T21:51:34.135Z,100877.55
2019-03-20T21:56:13.609Z,100890.20
2019-03-20T22:01:01.867Z,100890.44
2019-03-20T22:05:05.248Z,100887.00
2019-03-20T22:09:19.955Z,100887.72
2019-03-20T22:13:45.308Z,100899.95
2019-03-20T22:18:14.524Z,100902.38
2019-03-20T22:22:43.222Z,100906.88
2019-03-20T22:27:08.195Z,100903.34
2019-03-20T22:31:11.651Z,100908.52
2019-03-20T22:35:26.545Z,100909.03
2019-03-20T22:40:21.701Z,100905.33
2019-03-20T22:44:25.221Z,100914.05
2019-03-20T22:49:10.290Z,100921.84
2019-03-20T22:54:11.163Z,100919.90
2019-03-20T22:58:39.710Z,100915.06
2019-03-20T23:03:09.505Z,100919.89
2019-03-20T23:07:13.024Z,100929.34
2019-03-20T23:11:16.608Z,100926.84
2019-03-20T23:15:20.373Z,100921.50
2019-03-20T23:19:24.053Z,100929.96
2019-03-20T23:23:27.614Z,100929.23
2019-03-20T23:27:34.742Z,100936.48
2019-03-20T23:31:38.456Z,100930.56
2019-03-20T23:35:42.074Z,100931.73
2019-03-20T23:39:45.715Z,100926.38
2019-03-20T23:43:53.175Z,100931.22
2019-03-20T23:48:31.611Z,100945.52
2019-03-20T23:52:35.438Z,100950.66
2019-03-20T23:56:39.759Z,100964.14
